createdAt,value
2017-12-13T00:00:01.993Z,65.70
2017-12-13T00:02:30.188Z,66.20
2017-12-13T00:04:57.667Z,66.30
2017-12-13T00:07:25.111Z,66.30
2017-12-13T00:09:52.564Z,66.40
2017-12-13T00:12:19.984Z,66.50
2017-12-13T00:14:47.440Z,67.00
2017-12-13T00:17:14.868Z,67.00
2017-12-13T00:19:42.308Z,67.50
2017-12-13T00:22:09.745Z,67.50
2017-12-13T00:24:37.188Z,67.90
2017-12-13T00:27:04.652Z,67.80
2017-12-13T00:29:32.153Z,68.10
2017-12-13T00:31:59.527Z,68.10
2017-12-13T00:34:26.973Z,68.20
2017-12-13T00:36:55.336Z,69.40
2017-12-13T00:39:22.773Z,68.70
2017-12-13T00:41:50.200Z,69.30
2017-12-13T00:44:17.686Z,69.50
2017-12-13T00:46:45.897Z,69.80
2017-12-13T00:49:13.337Z,69.50
2017-12-13T00:51:40.817Z,69.80
2017-12-13T00:54:08.259Z,69.90
2017-12-13T00:56:35.811Z,69.60
2017-12-13T00:59:03.325Z,69.70
2017-12-13T01:01:30.757Z,69.60
2017-12-13T01:03:58.240Z,69.70
2017-12-13T01:06:25.668Z,69.60
2017-12-13T01:08:53.113Z,70.40
2017-12-13T01:11:20.540Z,69.60
2017-12-13T01:13:48.005Z,69.60
2017-12-13T01:16:15.439Z,69.60
2017-12-13T01:18:42.874Z,69.40
2017-12-13T01:21:10.305Z,69.60
2017-12-13T01:23:38.564Z,69.30
2017-12-13T01:26:06.005Z,69.40
2017-12-13T01:28:33.484Z,69.40
2017-12-13T01:31:00.927Z,69.60
2017-12-13T01:33:28.360Z,69.50
2017-12-13T01:35:58.707Z,69.50
2017-12-13T01:38:26.904Z,70.10
2017-12-13T01:40:54.339Z,70.10
2017-12-13T01:43:21.773Z,69.70
2017-12-13T01:45:49.210Z,69.50
2017-12-13T01:48:16.632Z,69.00
2017-12-13T01:50:44.831Z,68.90
2017-12-13T01:53:12.256Z,68.90
2017-12-13T01:55:39.724Z,68.90
2017-12-13T01:58:07.188Z,68.60
2017-12-13T02:00:34.620Z,68.30
2017-12-13T02:03:02.155Z,68.90
2017-12-13T02:05:29.616Z,68.50
2017-12-13T02:07:57.051Z,68.60
2017-12-13T02:10:24.503Z,68.90
2017-12-13T02:12:53.478Z,68.80
2017-12-13T02:15:20.912Z,68.70
2017-12-13T02:17:48.381Z,68.70
2017-12-13T02:20:15.910Z,68.80
2017-12-13T02:22:43.555Z,68.90
2017-12-13T02:27:44.155Z,69.00
2017-12-13T02:30:11.625Z,68.80
2017-12-13T02:32:39.065Z,68.90
2017-12-13T02:35:06.500Z,68.90
2017-12-13T02:37:33.964Z,69.60
2017-12-13T02:40:13.184Z,69.10
2017-12-13T02:42:40.712Z,69.10
2017-12-13T02:45:08.160Z,69.60
2017-12-13T02:47:35.595Z,69.50
2017-12-13T02:50:03.021Z,69.20
2017-12-13T02:52:30.464Z,69.30
2017-12-13T02:54:57.881Z,69.00
2017-12-13T02:57:25.363Z,68.80
2017-12-13T02:59:52.799Z,69.20
2017-12-13T03:02:20.253Z,69.30
2017-12-13T03:04:47.682Z,68.90
2017-12-13T03:07:15.124Z,69.30
2017-12-13T03:09:42.548Z,69.10
2017-12-13T03:12:10.015Z,69.10
2017-12-13T03:14:37.463Z,69.50
2017-12-13T03:17:04.907Z,69.20
2017-12-13T03:19:32.332Z,69.40
2017-12-13T03:21:59.799Z,69.50
2017-12-13T03:24:27.223Z,69.10
2017-12-13T03:26:54.664Z,69.10
2017-12-13T03:29:22.100Z,69.40
2017-12-13T03:31:49.640Z,69.70
2017-12-13T03:34:17.117Z,69.70
2017-12-13T03:36:44.552Z,69.50
2017-12-13T03:39:11.980Z,69.40
2017-12-13T03:41:39.445Z,69.30
2017-12-13T03:44:06.983Z,69.10
2017-12-13T03:46:34.524Z,69.10
2017-12-13T03:49:02.931Z,69.10
2017-12-13T03:51:31.129Z,69.20
2017-12-13T03:53:58.672Z,69.20
2017-12-13T03:56:26.115Z,68.90
2017-12-13T03:58:53.547Z,68.70
2017-12-13T04:01:20.986Z,68.70
2017-12-13T04:03:48.510Z,68.40
2017-12-13T04:06:15.942Z,68.60
2017-12-13T04:08:44.168Z,69.00
2017-12-13T04:11:11.600Z,69.00
2017-12-13T04:13:39.061Z,68.90
2017-12-13T04:16:06.505Z,69.10
2017-12-13T04:18:34.044Z,69.00
2017-12-13T04:21:01.487Z,68.90
2017-12-13T04:23:28.920Z,69.00
2017-12-13T04:25:56.463Z,69.40
2017-12-13T04:28:23.941Z,69.40
2017-12-13T04:30:51.360Z,69.50
2017-12-13T04:33:18.979Z,69.60
2017-12-13T04:35:46.450Z,69.50
2017-12-13T04:38:13.881Z,69.30
2017-12-13T04:40:41.320Z,68.70
2017-12-13T04:43:08.779Z,68.40
2017-12-13T04:45:36.217Z,68.30
2017-12-13T04:48:03.740Z,67.80
2017-12-13T04:50:31.168Z,67.80
2017-12-13T04:52:58.652Z,67.90
2017-12-13T04:55:26.088Z,68.20
2017-12-13T04:57:53.523Z,67.70
2017-12-13T05:00:20.965Z,68.00
2017-12-13T05:02:48.404Z,67.50
2017-12-13T05:05:15.860Z,68.10
2017-12-13T05:07:44.228Z,68.00
2017-12-13T05:10:11.664Z,67.90
2017-12-13T05:12:39.112Z,67.70
2017-12-13T05:15:06.588Z,67.20
2017-12-13T05:17:34.800Z,67.70
2017-12-13T05:20:02.259Z,67.70
2017-12-13T05:22:29.736Z,67.10
2017-12-13T05:24:57.937Z,67.50
2017-12-13T05:27:25.405Z,67.50
2017-12-13T05:29:52.843Z,67.50
2017-12-13T05:32:20.280Z,67.00
2017-12-13T05:34:47.727Z,66.90
2017-12-13T05:37:15.177Z,66.70
2017-12-13T05:39:42.621Z,66.60
2017-12-13T05:42:10.057Z,67.10
2017-12-13T05:44:37.512Z,66.70
2017-12-13T05:47:05.047Z,66.60
2017-12-13T05:49:32.480Z,66.80
2017-12-13T05:51:59.955Z,67.00
2017-12-13T05:54:27.396Z,66.80
2017-12-13T05:56:54.915Z,66.90
2017-12-13T05:59:22.363Z,67.00
2017-12-13T06:01:49.819Z,66.80
2017-12-13T06:04:17.281Z,67.00
2017-12-13T06:06:45.507Z,67.40
2017-12-13T06:09:12.954Z,67.20
2017-12-13T06:11:40.382Z,67.60
2017-12-13T06:14:07.835Z,67.60
2017-12-13T06:16:35.381Z,67.60
2017-12-13T06:19:02.807Z,67.10
2017-12-13T06:21:30.245Z,67.30
2017-12-13T06:23:57.715Z,67.00
2017-12-13T06:26:25.149Z,67.20
2017-12-13T06:28:52.575Z,67.00
2017-12-13T06:31:20.036Z,67.10
2017-12-13T06:33:47.488Z,66.40
2017-12-13T06:36:14.929Z,65.60
2017-12-13T06:38:42.468Z,65.50
2017-12-13T06:41:09.964Z,64.70
2017-12-13T06:43:37.410Z,64.40
2017-12-13T06:46:04.892Z,64.60
2017-12-13T06:48:32.341Z,64.80
2017-12-13T06:50:59.887Z,64.90
2017-12-13T06:53:27.324Z,65.40
2017-12-13T06:55:54.828Z,65.10
2017-12-13T06:58:23.033Z,64.90
2017-12-13T07:00:50.562Z,64.90
2017-12-13T07:03:18.046Z,64.70
2017-12-13T07:05:46.317Z,64.80
2017-12-13T07:08:14.520Z,65.10
2017-12-13T07:10:41.948Z,65.10
2017-12-13T07:13:10.348Z,65.00
2017-12-13T07:15:37.776Z,64.50
2017-12-13T07:18:05.336Z,65.00
2017-12-13T07:20:32.781Z,64.70
2017-12-13T07:23:00.229Z,64.00
2017-12-13T07:25:27.661Z,63.70
2017-12-13T07:27:55.148Z,63.10
2017-12-13T07:30:22.580Z,62.50
2017-12-13T07:32:50.782Z,61.90
2017-12-13T07:35:18.739Z,61.90
2017-12-13T07:37:46.151Z,61.60
2017-12-13T07:40:13.583Z,61.20
2017-12-13T07:42:41.780Z,61.10
2017-12-13T07:45:09.226Z,61.00
2017-12-13T07:47:36.692Z,59.90
2017-12-13T07:50:04.152Z,60.40
2017-12-13T07:52:31.709Z,60.50
2017-12-13T07:54:59.895Z,60.00
2017-12-13T07:57:27.336Z,60.00
2017-12-13T07:59:54.763Z,60.40
2017-12-13T08:02:22.956Z,60.20
2017-12-13T08:04:50.525Z,60.30
2017-12-13T08:07:17.972Z,60.50
2017-12-13T08:09:46.322Z,60.70
2017-12-13T08:12:13.880Z,60.60
2017-12-13T08:14:41.325Z,60.50
2017-12-13T08:17:08.765Z,59.80
2017-12-13T08:19:36.208Z,59.60
2017-12-13T08:22:03.664Z,59.60
2017-12-13T08:24:31.088Z,59.00
2017-12-13T08:26:58.532Z,57.30
2017-12-13T08:29:25.975Z,57.60
2017-12-13T08:31:53.425Z,56.40
2017-12-13T08:34:20.855Z,56.90
2017-12-13T08:36:48.304Z,57.10
2017-12-13T08:39:15.761Z,55.60
2017-12-13T08:41:43.187Z,55.60
2017-12-13T08:44:11.329Z,54.20
2017-12-13T08:46:38.748Z,53.60
2017-12-13T08:49:06.249Z,53.20
2017-12-13T08:51:33.664Z,53.20
2017-12-13T08:54:01.116Z,52.80
2017-12-13T08:56:28.548Z,52.90
2017-12-13T08:58:56.692Z,53.40
2017-12-13T09:01:24.864Z,52.10
2017-12-13T09:03:52.292Z,52.00
2017-12-13T09:06:19.732Z,52.00
2017-12-13T09:08:47.151Z,52.00
2017-12-13T09:11:14.648Z,51.50
2017-12-13T09:13:42.080Z,51.40
2017-12-13T09:16:09.517Z,51.80
2017-12-13T09:18:36.992Z,51.70
2017-12-13T09:21:05.364Z,51.40
2017-12-13T09:23:32.889Z,51.10
2017-12-13T09:26:00.409Z,51.50
2017-12-13T09:28:27.891Z,51.00
2017-12-13T09:30:55.318Z,51.20
2017-12-13T09:33:22.762Z,50.40
2017-12-13T09:35:50.191Z,50.40
2017-12-13T09:38:17.628Z,49.60
2017-12-13T09:40:45.057Z,49.10
2017-12-13T09:43:12.498Z,49.20
2017-12-13T09:45:39.925Z,48.60
2017-12-13T09:48:07.384Z,47.90
2017-12-13T09:50:34.819Z,47.80
2017-12-13T09:53:02.245Z,46.60
2017-12-13T09:55:29.678Z,48.90
2017-12-13T09:57:57.904Z,45.20
2017-12-13T10:00:25.448Z,45.20
2017-12-13T10:02:52.880Z,45.00
2017-12-13T10:05:20.338Z,44.70
2017-12-13T10:07:47.779Z,44.40
2017-12-13T10:10:15.220Z,44.30
2017-12-13T10:12:42.664Z,44.30
2017-12-13T10:15:10.136Z,43.00
2017-12-13T10:17:38.442Z,43.40
2017-12-13T10:20:05.903Z,43.50
2017-12-13T10:22:33.393Z,43.60
2017-12-13T10:25:00.904Z,42.40
2017-12-13T10:27:28.348Z,42.30
2017-12-13T10:29:55.780Z,41.50
2017-12-13T10:32:24.733Z,42.10
2017-12-13T10:34:52.162Z,42.10
2017-12-13T10:37:19.657Z,41.40
2017-12-13T10:39:47.096Z,42.20
2017-12-13T10:42:15.369Z,42.30
2017-12-13T10:44:43.588Z,42.60
2017-12-13T10:47:11.062Z,43.10
2017-12-13T10:49:38.500Z,43.40
2017-12-13T10:52:05.936Z,42.90
2017-12-13T10:54:34.897Z,43.90
2017-12-13T10:57:02.452Z,43.80
2017-12-13T10:59:29.910Z,43.40
2017-12-13T11:01:57.344Z,43.70
2017-12-13T11:04:24.896Z,43.90
2017-12-13T11:06:52.328Z,43.60
2017-12-13T11:09:20.166Z,43.90
2017-12-13T11:11:47.636Z,44.00
2017-12-13T11:14:15.172Z,44.30
2017-12-13T11:16:42.603Z,44.30
2017-12-13T11:19:10.065Z,44.80
2017-12-13T11:21:37.625Z,44.60
2017-12-13T11:24:05.820Z,45.40
2017-12-13T11:26:34.232Z,45.20
2017-12-13T11:29:01.665Z,44.60
2017-12-13T11:31:29.112Z,44.50
2017-12-13T11:33:56.543Z,44.30
2017-12-13T11:36:24.104Z,44.20
2017-12-13T11:38:51.545Z,43.40
2017-12-13T11:41:19.004Z,43.50
2017-12-13T11:43:46.485Z,43.40
2017-12-13T11:46:14.080Z,43.40
2017-12-13T11:48:41.636Z,43.40
2017-12-13T11:51:09.057Z,43.40
2017-12-13T11:53:36.497Z,43.00
2017-12-13T11:56:03.948Z,42.80
2017-12-13T11:58:31.500Z,42.20
2017-12-13T12:00:58.960Z,42.00
2017-12-13T12:03:27.161Z,42.10
2017-12-13T12:05:54.598Z,42.10
2017-12-13T12:08:22.064Z,41.90
2017-12-13T12:10:49.601Z,40.60
2017-12-13T12:13:17.077Z,39.60
2017-12-13T12:15:44.691Z,40.00
2017-12-13T12:18:12.134Z,39.80
2017-12-13T12:20:39.615Z,40.10
2017-12-13T12:23:07.056Z,40.50
2017-12-13T12:25:34.591Z,40.50
2017-12-13T12:28:02.146Z,41.00
2017-12-13T12:30:30.110Z,41.00
2017-12-13T12:32:57.536Z,41.30
2017-12-13T12:35:25.073Z,41.10
2017-12-13T12:37:52.555Z,40.90
2017-12-13T12:40:20.758Z,41.20
2017-12-13T12:42:48.230Z,41.30
2017-12-13T12:45:15.718Z,41.40
2017-12-13T12:47:43.233Z,41.60
2017-12-13T12:50:10.760Z,41.60
2017-12-13T12:52:38.321Z,42.40
2017-12-13T12:55:05.740Z,41.60
2017-12-13T12:57:33.184Z,41.50
2017-12-13T13:00:00.693Z,41.80
2017-12-13T13:02:29.010Z,41.70
2017-12-13T13:04:56.450Z,41.70
2017-12-13T13:07:23.957Z,41.70
2017-12-13T13:09:51.396Z,41.20
2017-12-13T13:12:18.834Z,41.80
2017-12-13T13:14:46.341Z,42.00
2017-12-13T13:17:14.528Z,42.50
2017-12-13T13:19:41.982Z,42.50
2017-12-13T13:22:09.465Z,42.50
2017-12-13T13:24:36.902Z,42.50
2017-12-13T13:27:04.336Z,42.20
2017-12-13T13:29:31.853Z,41.70
2017-12-13T13:31:59.324Z,41.80
2017-12-13T13:34:26.821Z,42.40
2017-12-13T13:36:54.350Z,41.70
2017-12-13T13:39:22.572Z,41.80
2017-12-13T13:41:50.013Z,41.80
2017-12-13T13:44:17.495Z,41.80
2017-12-13T13:46:45.720Z,41.60
2017-12-13T13:49:13.203Z,41.50
2017-12-13T13:51:41.607Z,40.90
2017-12-13T13:54:09.033Z,40.90
2017-12-13T13:56:36.521Z,40.00
2017-12-13T13:59:04.003Z,40.30
2017-12-13T14:01:32.266Z,40.00
2017-12-13T14:03:59.698Z,40.10
2017-12-13T14:06:27.928Z,39.80
2017-12-13T14:08:55.517Z,39.70
2017-12-13T14:11:23.013Z,39.50
2017-12-13T14:13:52.003Z,39.90
2017-12-13T14:16:19.426Z,39.90
2017-12-13T14:18:46.868Z,40.10
2017-12-13T14:21:14.459Z,39.30
2017-12-13T14:23:42.710Z,40.10
2017-12-13T14:26:11.034Z,40.10
2017-12-13T14:28:38.469Z,40.10
2017-12-13T14:31:05.988Z,40.00
2017-12-13T14:33:33.535Z,40.00
2017-12-13T14:36:01.022Z,40.00
2017-12-13T14:38:28.444Z,40.00
2017-12-13T14:40:55.946Z,40.00
2017-12-13T14:43:25.241Z,41.00
2017-12-13T14:45:52.784Z,40.30
2017-12-13T14:48:20.258Z,39.90
2017-12-13T14:50:47.740Z,40.00
2017-12-13T14:53:15.215Z,40.60
2017-12-13T14:55:43.433Z,40.30
2017-12-13T14:58:10.885Z,40.30
2017-12-13T15:00:38.354Z,40.70
2017-12-13T15:03:06.537Z,40.20
2017-12-13T15:05:33.968Z,40.30
2017-12-13T15:08:01.525Z,40.50
2017-12-13T15:10:28.961Z,40.60
2017-12-13T15:12:56.400Z,40.00
2017-12-13T15:15:24.012Z,40.50
2017-12-13T15:17:51.553Z,40.50
2017-12-13T15:20:19.122Z,40.40
2017-12-13T15:22:47.323Z,41.00
2017-12-13T15:25:14.882Z,41.00
2017-12-13T15:27:42.305Z,41.40
2017-12-13T15:30:09.776Z,43.30
2017-12-13T15:32:37.224Z,41.60
2017-12-13T15:35:04.804Z,41.50
2017-12-13T15:37:33.050Z,42.30
2017-12-13T15:40:01.306Z,42.50
2017-12-13T15:42:28.786Z,42.50
2017-12-13T15:44:56.256Z,43.00
2017-12-13T15:47:24.492Z,43.50
2017-12-13T15:49:51.963Z,43.60
2017-12-13T15:52:19.403Z,43.50
2017-12-13T15:54:46.934Z,43.80
2017-12-13T15:57:14.508Z,44.00
2017-12-13T15:59:41.983Z,44.30
2017-12-13T16:02:09.461Z,44.60
2017-12-13T16:04:36.941Z,45.10
2017-12-13T16:07:04.380Z,45.40
2017-12-13T16:09:31.970Z,45.70
2017-12-13T16:12:00.233Z,45.60
2017-12-13T16:14:28.475Z,45.80
2017-12-13T16:16:56.034Z,45.80
2017-12-13T16:19:24.300Z,45.60
2017-12-13T16:21:51.853Z,45.60
2017-12-13T16:24:19.285Z,46.20
2017-12-13T16:26:46.794Z,45.30
2017-12-13T16:29:14.253Z,45.50
2017-12-13T16:31:42.543Z,45.30
2017-12-13T16:34:10.794Z,45.10
2017-12-13T16:36:39.060Z,45.00
2017-12-13T16:39:07.288Z,44.70
2017-12-13T16:41:34.762Z,44.70
2017-12-13T16:44:02.993Z,44.70
2017-12-13T16:46:30.474Z,44.70
2017-12-13T16:48:58.689Z,44.50
2017-12-13T16:51:26.190Z,44.40
2017-12-13T16:53:53.662Z,44.60
2017-12-13T16:56:21.133Z,45.20
2017-12-13T16:58:48.615Z,45.40
2017-12-13T17:01:16.082Z,45.80
2017-12-13T17:03:43.590Z,46.40
2017-12-13T17:06:11.846Z,46.90
2017-12-13T17:08:40.109Z,46.60
2017-12-13T17:11:07.555Z,46.60
2017-12-13T17:13:35.893Z,46.70
2017-12-13T17:16:03.499Z,46.60
2017-12-13T17:18:30.975Z,46.70
2017-12-13T17:20:58.458Z,47.20
2017-12-13T17:23:26.005Z,46.80
2017-12-13T17:25:53.499Z,46.30
2017-12-13T17:28:20.990Z,45.80
2017-12-13T17:30:49.209Z,45.20
2017-12-13T17:33:16.798Z,44.50
2017-12-13T17:35:44.367Z,43.40
2017-12-13T17:38:11.797Z,43.20
2017-12-13T17:40:39.333Z,42.20
2017-12-13T17:43:06.764Z,41.40
2017-12-13T17:45:34.208Z,41.40
2017-12-13T17:48:01.696Z,42.90
2017-12-13T17:50:29.167Z,44.70
2017-12-13T17:52:56.709Z,49.10
2017-12-13T17:55:24.132Z,51.80
2017-12-13T17:57:51.584Z,56.60
2017-12-13T18:00:19.674Z,62.20
2017-12-13T18:02:47.934Z,67.30
2017-12-13T18:05:16.120Z,69.20
2017-12-13T18:07:43.548Z,69.20
2017-12-13T18:10:11.043Z,70.10
2017-12-13T18:12:38.673Z,71.40
2017-12-13T18:15:06.248Z,72.60
2017-12-13T18:17:33.682Z,73.20
2017-12-13T18:20:01.172Z,73.60
2017-12-13T18:22:29.420Z,74.20
2017-12-13T18:24:57.646Z,74.80
2017-12-13T18:27:25.090Z,74.70
2017-12-13T18:29:52.532Z,74.40
2017-12-13T18:32:19.955Z,75.00
2017-12-13T18:34:47.532Z,75.20
2017-12-13T18:37:14.994Z,75.50
2017-12-13T18:39:43.235Z,76.50
2017-12-13T18:42:10.719Z,76.50
2017-12-13T18:44:38.178Z,77.80
2017-12-13T18:47:05.702Z,76.90
2017-12-13T18:49:33.280Z,78.00
2017-12-13T18:52:00.704Z,76.40
2017-12-13T18:54:28.130Z,76.10
2017-12-13T18:56:55.619Z,74.30
2017-12-13T18:59:23.036Z,76.80
2017-12-13T19:01:50.501Z,75.50
2017-12-13T19:04:17.970Z,74.80
2017-12-13T19:06:45.475Z,75.40
2017-12-13T19:09:12.972Z,74.80
2017-12-13T19:11:40.439Z,75.80
2017-12-13T19:14:07.936Z,75.30
2017-12-13T19:16:35.352Z,75.40
2017-12-13T19:19:02.860Z,75.60
2017-12-13T19:21:31.129Z,75.50
2017-12-13T19:23:59.377Z,75.80
2017-12-13T19:26:27.605Z,75.90
2017-12-13T19:28:55.082Z,75.90
2017-12-13T19:31:23.356Z,76.70
2017-12-13T19:33:50.838Z,76.70
2017-12-13T19:36:18.348Z,76.80
2017-12-13T19:38:45.766Z,75.20
2017-12-13T19:41:14.039Z,74.70
2017-12-13T19:43:43.261Z,74.40
2017-12-13T19:46:10.728Z,74.40
2017-12-13T19:48:38.206Z,75.40
2017-12-13T19:51:07.039Z,75.90
2017-12-13T19:53:35.204Z,75.90
2017-12-13T19:56:02.726Z,76.50
2017-12-13T19:58:30.184Z,76.30
2017-12-13T20:00:57.677Z,76.80
2017-12-13T20:03:25.947Z,76.00
2017-12-13T20:05:53.372Z,76.00
2017-12-13T20:08:20.880Z,76.00
2017-12-13T20:10:48.423Z,76.20
2017-12-13T20:13:15.939Z,76.20
2017-12-13T20:15:43.463Z,76.40
2017-12-13T20:18:11.722Z,75.40
2017-12-13T20:20:39.988Z,74.90
2017-12-13T20:23:07.408Z,75.00
2017-12-13T20:25:35.662Z,74.40
2017-12-13T20:28:03.130Z,74.40
2017-12-13T20:30:31.313Z,74.70
2017-12-13T20:32:58.808Z,74.70
2017-12-13T20:35:26.271Z,74.00
2017-12-13T20:37:54.535Z,72.80
2017-12-13T20:40:22.722Z,72.80
2017-12-13T20:42:50.340Z,72.80
2017-12-13T20:45:18.703Z,72.80
2017-12-13T20:47:46.957Z,73.00
2017-12-13T20:50:15.291Z,71.90
2017-12-13T20:52:42.774Z,71.90
2017-12-13T20:55:11.032Z,71.50
2017-12-13T20:57:39.262Z,71.30
2017-12-13T21:00:06.771Z,71.30
2017-12-13T21:02:34.295Z,70.70
2017-12-13T21:05:01.864Z,71.40
2017-12-13T21:07:29.293Z,71.20
2017-12-13T21:09:56.823Z,70.50
2017-12-13T21:12:24.318Z,71.20
2017-12-13T21:14:51.774Z,71.20
2017-12-13T21:17:19.248Z,70.60
2017-12-13T21:19:47.484Z,70.40
2017-12-13T21:22:15.046Z,70.40
2017-12-13T21:24:43.281Z,70.40
2017-12-13T21:27:10.867Z,70.40
2017-12-13T21:29:38.346Z,70.20
2017-12-13T21:32:05.813Z,70.80
2017-12-13T21:34:33.297Z,71.30
2017-12-13T21:37:00.872Z,71.30
2017-12-13T21:39:28.342Z,71.50
2017-12-13T21:41:55.821Z,71.20
2017-12-13T21:44:24.083Z,70.80
2017-12-13T21:46:52.367Z,70.90
2017-12-13T21:49:20.226Z,70.90
2017-12-13T21:51:47.636Z,70.70
2017-12-13T21:54:15.161Z,70.80
2017-12-13T21:56:42.630Z,70.90
2017-12-13T21:59:10.110Z,70.80
2017-12-13T22:01:37.584Z,71.40
2017-12-13T22:04:05.199Z,70.20
2017-12-13T22:06:32.665Z,69.90
2017-12-13T22:09:00.137Z,69.50
2017-12-13T22:11:28.516Z,69.00
2017-12-13T22:13:56.707Z,69.40
2017-12-13T22:16:24.310Z,69.40
2017-12-13T22:18:52.554Z,68.60
2017-12-13T22:21:20.014Z,68.60
2017-12-13T22:23:48.298Z,70.00
2017-12-13T22:26:15.758Z,70.00
2017-12-13T22:28:43.177Z,69.80
2017-12-13T22:31:10.659Z,70.20
2017-12-13T22:33:38.146Z,71.00
2017-12-13T22:36:06.526Z,72.40
2017-12-13T22:38:34.106Z,72.30
2017-12-13T22:41:01.579Z,71.80
2017-12-13T22:43:29.000Z,73.10
2017-12-13T22:45:56.504Z,73.30
2017-12-13T22:48:24.048Z,72.70
2017-12-13T22:50:51.585Z,73.50
2017-12-13T22:53:20.722Z,74.30
2017-12-13T22:55:48.301Z,74.30
2017-12-13T22:58:15.753Z,74.30
2017-12-13T23:00:50.760Z,74.30
2017-12-13T23:03:18.957Z,74.60
2017-12-13T23:05:46.394Z,74.60
2017-12-13T23:08:13.928Z,74.50
2017-12-13T23:10:42.161Z,74.90
2017-12-13T23:13:09.618Z,75.00
2017-12-13T23:15:37.866Z,75.60
2017-12-13T23:18:05.392Z,75.60
2017-12-13T23:20:32.816Z,75.40
2017-12-13T23:23:00.270Z,75.40
2017-12-13T23:25:27.717Z,76.10
2017-12-13T23:27:55.148Z,76.70
2017-12-13T23:30:22.576Z,76.50
2017-12-13T23:32:50.018Z,76.50
2017-12-13T23:35:17.487Z,76.60
2017-12-13T23:37:44.919Z,76.40
2017-12-13T23:40:12.358Z,76.10
2017-12-13T23:42:39.812Z,77.20
2017-12-13T23:45:07.249Z,76.90
2017-12-13T23:47:34.705Z,77.80
2017-12-13T23:50:02.131Z,77.60
2017-12-13T23:52:29.572Z,79.00
2017-12-13T23:54:57.068Z,78.00
2017-12-13T23:57:24.612Z,78.40
2017-12-13T23:59:52.057Z,78.00
